createdAt,value
2022-11-26T00:00:27.920Z,100408.44
2022-11-26T00:01:29.800Z,100404.94
2022-11-26T00:02:31.905Z,100408.42
2022-11-26T00:03:34.034Z,100415.27
2022-11-26T00:04:38.375Z,100408.36
2022-11-26T00:05:43.998Z,100403.14
2022-11-26T00:06:46.000Z,100410.05
2022-11-26T00:07:54.465Z,100404.84
2022-11-26T00:08:57.835Z,100409.11
2022-11-26T00:10:01.368Z,100406.56
2022-11-26T00:11:06.644Z,100401.49
2022-11-26T00:12:20.930Z,100399.72
2022-11-26T00:14:35.701Z,100403.11
2022-11-26T00:15:37.870Z,100402.36
2022-11-26T00:16:41.004Z,100403.14
2022-11-26T00:17:43.201Z,100403.16
2022-11-26T00:18:45.039Z,100404.95
2022-11-26T00:19:48.614Z,100403.98
2022-11-26T00:20:54.461Z,100408.26
2022-11-26T00:21:56.345Z,100408.35
2022-11-26T00:23:01.749Z,100404.83
2022-11-26T00:24:06.385Z,100403.91
2022-11-26T00:25:24.406Z,100396.19
2022-11-26T00:26:26.510Z,100398.80
2022-11-26T00:27:28.505Z,100406.50
2022-11-26T00:28:33.547Z,100399.62
2022-11-26T00:29:35.427Z,100399.57
2022-11-26T00:30:37.480Z,100403.08
2022-11-26T00:31:40.229Z,100400.42
2022-11-26T00:32:42.340Z,100402.23
2022-11-26T00:33:44.819Z,100398.70
2022-11-26T00:34:46.995Z,100399.54
2022-11-26T00:35:52.186Z,100400.53
2022-11-26T00:36:54.309Z,100397.89
2022-11-26T00:37:57.365Z,100406.64
2022-11-26T00:39:05.670Z,100398.80
2022-11-26T00:41:30.467Z,100401.27
2022-11-26T00:42:32.630Z,100396.96
2022-11-26T00:43:35.691Z,100400.42
2022-11-26T00:44:37.789Z,100401.33
2022-11-26T00:45:40.577Z,100399.50
2022-11-26T00:46:44.618Z,100396.96
2022-11-26T00:47:46.511Z,100399.55
2022-11-26T00:48:48.983Z,100397.80
2022-11-26T00:49:50.875Z,100395.23
2022-11-26T00:50:53.223Z,100397.89
2022-11-26T00:51:55.420Z,100394.36
2022-11-26T00:52:57.317Z,100395.29
2022-11-26T00:54:02.006Z,100398.72
2022-11-26T00:55:08.051Z,100400.39
2022-11-26T00:56:19.232Z,100405.51
2022-11-26T00:57:21.392Z,100402.03
2022-11-26T00:58:29.214Z,100406.36
2022-11-26T00:59:31.158Z,100415.77
2022-11-26T01:00:34.928Z,100403.67
2022-11-26T01:01:36.959Z,100409.84
2022-11-26T01:02:39.058Z,100408.83
2022-11-26T01:03:43.402Z,100409.88
2022-11-26T01:04:45.362Z,100400.44
2022-11-26T01:05:56.523Z,100402.08
2022-11-26T01:06:58.582Z,100393.31
2022-11-26T01:08:03.002Z,100400.34
2022-11-26T01:09:08.682Z,100404.69
2022-11-26T01:10:20.697Z,100396.91
2022-11-26T01:11:23.632Z,100402.95
2022-11-26T01:12:25.490Z,100400.39
2022-11-26T01:13:28.396Z,100403.84
2022-11-26T01:14:30.275Z,100407.52
2022-11-26T01:15:32.149Z,100401.31
2022-11-26T01:16:36.295Z,100403.96
2022-11-26T01:17:38.697Z,100402.95
2022-11-26T01:18:40.920Z,100407.17
2022-11-26T01:19:42.811Z,100398.45
2022-11-26T01:20:45.475Z,100404.69
2022-11-26T01:21:47.336Z,100404.66
2022-11-26T01:22:50.645Z,100403.84
2022-11-26T01:23:52.871Z,100407.20
2022-11-26T01:24:54.829Z,100404.73
2022-11-26T01:25:56.746Z,100406.42
2022-11-26T01:26:58.835Z,100413.37
2022-11-26T01:28:00.702Z,100408.08
2022-11-26T01:29:03.004Z,100415.05
2022-11-26T01:30:11.899Z,100411.44
2022-11-26T01:32:29.429Z,100408.78
2022-11-26T01:33:30.393Z,100414.16
2022-11-26T01:34:32.488Z,100413.25
2022-11-26T01:35:36.047Z,100408.09
2022-11-26T01:36:39.833Z,100412.39
2022-11-26T01:37:42.138Z,100415.05
2022-11-26T01:38:44.156Z,100406.45
2022-11-26T01:39:46.024Z,100407.21
2022-11-26T01:40:57.623Z,100415.92
2022-11-26T01:42:04.130Z,100414.21
2022-11-26T01:43:27.967Z,100407.31
2022-11-26T01:44:33.295Z,100409.84
2022-11-26T01:45:35.258Z,100420.33
2022-11-26T01:46:40.026Z,100411.77
2022-11-26T01:47:44.332Z,100410.92
2022-11-26T01:48:48.152Z,100414.31
2022-11-26T01:50:28.862Z,100422.19
2022-11-26T01:51:30.942Z,100416.88
2022-11-26T01:52:33.008Z,100415.19
2022-11-26T01:53:51.028Z,100413.47
2022-11-26T01:54:54.614Z,100416.91
2022-11-26T01:57:20.797Z,100416.75
2022-11-26T01:58:26.763Z,100420.36
2022-11-26T01:59:35.242Z,100420.27
2022-11-26T02:00:37.777Z,100418.53
2022-11-26T02:01:39.958Z,100425.51
2022-11-26T02:02:43.282Z,100422.79
2022-11-26T02:03:58.324Z,100421.23
2022-11-26T02:05:13.221Z,100424.63
2022-11-26T02:06:19.008Z,100429.02
2022-11-26T02:07:21.505Z,100426.27
2022-11-26T02:08:27.261Z,100423.58
2022-11-26T02:09:29.830Z,100428.69
2022-11-26T02:10:33.707Z,100424.63
2022-11-26T02:11:36.154Z,100423.80
2022-11-26T02:12:38.947Z,100426.36
2022-11-26T02:13:41.178Z,100420.20
2022-11-26T02:14:45.023Z,100426.33
2022-11-26T02:17:26.876Z,100437.52
2022-11-26T02:18:32.534Z,100430.66
2022-11-26T02:20:01.417Z,100424.59
2022-11-26T02:21:07.073Z,100429.67
2022-11-26T02:22:32.571Z,100433.28
2022-11-26T02:24:12.234Z,100436.67
2022-11-26T02:25:19.031Z,100439.31
2022-11-26T02:26:30.843Z,100428.88
2022-11-26T02:27:42.435Z,100432.43
2022-11-26T02:29:15.842Z,100429.83
2022-11-26T02:30:18.194Z,100432.43
2022-11-26T02:31:32.553Z,100433.27
2022-11-26T02:33:00.713Z,100432.44
2022-11-26T02:34:12.532Z,100439.38
2022-11-26T02:35:23.723Z,100440.20
2022-11-26T02:37:43.425Z,100453.06
2022-11-26T02:38:45.391Z,100453.22
2022-11-26T02:39:47.295Z,100444.44
2022-11-26T02:40:51.595Z,100452.27
2022-11-26T02:41:57.682Z,100448.07
2022-11-26T02:42:59.586Z,100447.13
2022-11-26T02:44:02.055Z,100448.88
2022-11-26T02:45:17.250Z,100441.14
2022-11-26T02:46:20.890Z,100447.16
2022-11-26T02:47:25.977Z,100446.30
2022-11-26T02:48:34.510Z,100450.62
2022-11-26T02:49:39.511Z,100449.75
2022-11-26T02:50:51.588Z,100448.13
2022-11-26T02:51:57.246Z,100452.34
2022-11-26T02:53:00.764Z,100446.30
2022-11-26T02:54:06.453Z,100447.20
2022-11-26T02:55:12.195Z,100451.55
2022-11-26T02:56:20.857Z,100454.11
2022-11-26T02:57:26.507Z,100448.04
2022-11-26T02:58:29.902Z,100449.88
2022-11-26T02:59:32.922Z,100457.61
2022-11-26T03:00:38.189Z,100456.79
2022-11-26T03:01:50.108Z,100461.13
2022-11-26T03:02:58.568Z,100461.94
2022-11-26T03:04:04.386Z,100452.35
2022-11-26T03:05:09.274Z,100459.27
2022-11-26T03:06:15.075Z,100458.50
2022-11-26T03:07:19.714Z,100459.38
2022-11-26T03:08:22.275Z,100460.36
2022-11-26T03:09:24.265Z,100462.00
2022-11-26T03:10:27.597Z,100462.84
2022-11-26T03:11:33.784Z,100464.53
2022-11-26T03:12:36.104Z,100467.09
2022-11-26T03:13:37.989Z,100463.71
2022-11-26T03:14:40.083Z,100464.53
2022-11-26T03:15:43.820Z,100460.17
2022-11-26T03:16:45.866Z,100462.83
2022-11-26T03:17:49.372Z,100465.42
2022-11-26T03:18:51.290Z,100461.90
2022-11-26T03:19:53.850Z,100463.59
2022-11-26T03:20:55.942Z,100466.32
2022-11-26T03:21:57.792Z,100459.35
2022-11-26T03:22:59.871Z,100461.23
2022-11-26T03:24:01.744Z,100456.77
2022-11-26T03:25:05.018Z,100459.37
2022-11-26T03:26:07.579Z,100458.47
2022-11-26T03:27:09.480Z,100457.55
2022-11-26T03:28:11.351Z,100463.55
2022-11-26T03:29:13.228Z,100467.16
2022-11-26T03:30:15.799Z,100467.98
2022-11-26T03:31:17.836Z,100462.72
2022-11-26T03:32:19.941Z,100470.59
2022-11-26T03:33:21.821Z,100466.32
2022-11-26T03:34:25.739Z,100468.89
2022-11-26T03:35:28.071Z,100467.16
2022-11-26T03:36:30.084Z,100472.33
2022-11-26T03:37:32.093Z,100475.76
2022-11-26T03:38:36.210Z,100473.13
2022-11-26T03:39:38.101Z,100472.25
2022-11-26T03:40:41.033Z,100474.11
2022-11-26T03:41:43.968Z,100469.72
2022-11-26T03:42:45.915Z,100468.95
2022-11-26T03:43:47.769Z,100470.63
2022-11-26T03:44:49.871Z,100481.03
2022-11-26T03:45:51.919Z,100472.41
2022-11-26T03:46:54.415Z,100476.73
2022-11-26T03:47:56.270Z,100475.88
2022-11-26T03:48:58.119Z,100479.40
2022-11-26T03:49:59.971Z,100467.30
2022-11-26T03:51:01.822Z,100469.02
2022-11-26T03:52:03.976Z,100471.68
2022-11-26T03:53:05.841Z,100467.30
2022-11-26T03:54:07.989Z,100476.05
2022-11-26T03:55:10.971Z,100475.98
2022-11-26T03:56:13.181Z,100470.73
2022-11-26T03:57:15.082Z,100485.39
2022-11-26T03:58:16.947Z,100481.06
2022-11-26T03:59:18.828Z,100473.28
2022-11-26T04:00:21.425Z,100480.15
2022-11-26T04:01:23.471Z,100481.00
2022-11-26T04:02:25.948Z,100478.48
2022-11-26T04:03:27.892Z,100493.31
2022-11-26T04:04:31.659Z,100488.91
2022-11-26T04:05:33.642Z,100485.63
2022-11-26T04:06:35.887Z,100485.44
2022-11-26T04:07:37.826Z,100491.40
2022-11-26T04:08:40.286Z,100487.98
2022-11-26T04:09:42.228Z,100495.11
2022-11-26T04:10:44.207Z,100493.34
2022-11-26T04:11:46.154Z,100487.31
2022-11-26T04:12:48.002Z,100495.05
2022-11-26T04:13:49.846Z,100502.02
2022-11-26T04:14:51.682Z,100494.09
2022-11-26T04:15:53.652Z,100494.07
2022-11-26T04:16:55.873Z,100502.01
2022-11-26T04:17:57.871Z,100502.88
2022-11-26T04:18:59.848Z,100507.10
2022-11-26T04:20:02.028Z,100507.98
2022-11-26T04:21:08.331Z,100504.42
2022-11-26T04:22:10.243Z,100500.97
2022-11-26T04:23:12.913Z,100505.22
2022-11-26T04:24:14.874Z,100500.03
2022-11-26T04:25:16.936Z,100501.76
2022-11-26T04:26:19.020Z,100496.64
2022-11-26T04:27:20.931Z,100502.78
2022-11-26T04:28:22.781Z,100494.95
2022-11-26T04:29:24.644Z,100509.89
2022-11-26T04:30:26.607Z,100502.79
2022-11-26T04:31:29.045Z,100501.11
2022-11-26T04:32:31.229Z,100502.08
2022-11-26T04:33:33.107Z,100497.70
2022-11-26T04:34:34.961Z,100501.19
2022-11-26T04:35:37.563Z,100503.80
2022-11-26T04:36:39.639Z,100507.25
2022-11-26T04:37:41.812Z,100501.09
2022-11-26T04:38:43.879Z,100493.23
2022-11-26T04:39:45.741Z,100498.48
2022-11-26T04:40:48.878Z,100492.53
2022-11-26T04:41:50.777Z,100500.34
2022-11-26T04:42:53.415Z,100497.73
2022-11-26T04:43:55.388Z,100495.05
2022-11-26T04:44:57.277Z,100489.87
2022-11-26T04:45:59.466Z,100495.89
2022-11-26T04:47:01.611Z,100504.64
2022-11-26T04:48:05.328Z,100501.13
2022-11-26T04:49:07.205Z,100501.92
2022-11-26T04:50:11.006Z,100501.91
2022-11-26T04:51:12.876Z,100501.83
2022-11-26T04:52:14.753Z,100501.02
2022-11-26T04:53:17.243Z,100503.71
2022-11-26T04:54:19.179Z,100500.16
2022-11-26T04:55:21.270Z,100501.77
2022-11-26T04:56:23.510Z,100511.45
2022-11-26T04:57:27.540Z,100500.98
2022-11-26T04:58:29.750Z,100508.83
2022-11-26T04:59:31.613Z,100507.10
2022-11-26T05:00:34.619Z,100512.39
2022-11-26T05:01:38.310Z,100514.14
2022-11-26T05:02:40.770Z,100515.94
2022-11-26T05:03:42.810Z,100520.30
2022-11-26T05:04:46.673Z,100521.13
2022-11-26T05:05:49.328Z,100522.89
2022-11-26T05:06:51.313Z,100514.11
2022-11-26T05:07:53.216Z,100515.98
2022-11-26T05:08:55.340Z,100522.86
2022-11-26T05:09:57.522Z,100531.52
2022-11-26T05:10:59.493Z,100528.16
2022-11-26T05:12:01.367Z,100531.59
2022-11-26T05:13:03.664Z,100534.95
2022-11-26T05:14:05.691Z,100529.73
2022-11-26T05:15:08.623Z,100525.57
2022-11-26T05:16:10.665Z,100538.53
2022-11-26T05:17:12.665Z,100534.19
2022-11-26T05:18:14.533Z,100541.11
2022-11-26T10:46:51.372Z,100745.16
2022-11-26T10:47:55.134Z,100750.39
2022-11-26T10:49:17.403Z,100745.14
2022-11-26T10:51:30.491Z,100742.53
2022-11-26T10:52:33.327Z,100734.71
2022-11-26T10:54:50.154Z,100738.09
2022-11-26T10:55:55.990Z,100739.89
2022-11-26T10:57:07.778Z,100750.30
2022-11-26T10:58:16.593Z,100749.47
2022-11-26T10:59:34.257Z,100745.13
2022-11-26T11:00:40.174Z,100745.11
2022-11-26T11:01:42.346Z,100752.16
2022-11-26T11:02:47.991Z,100746.89
2022-11-26T11:04:09.204Z,100750.41
2022-11-26T11:05:00.179Z,100759.09
2022-11-26T11:06:14.488Z,100746.02
2022-11-26T11:07:37.004Z,100758.97
2022-11-26T11:08:39.175Z,100751.12
2022-11-26T11:09:41.091Z,100764.16
2022-11-26T11:10:54.979Z,100760.81
2022-11-26T11:12:18.904Z,100755.58
2022-11-26T11:13:23.791Z,100762.56
2022-11-26T11:14:28.751Z,100763.39
2022-11-26T11:15:33.277Z,100759.86
2022-11-26T11:16:42.204Z,100757.24
2022-11-26T11:17:48.575Z,100769.37
2022-11-26T11:18:56.655Z,100763.28
2022-11-26T11:20:02.333Z,100764.16
2022-11-26T11:21:06.294Z,100768.52
2022-11-26T11:22:11.967Z,100766.77
2022-11-26T11:23:17.629Z,100766.77
2022-11-26T11:24:25.626Z,100766.78
2022-11-26T11:25:30.918Z,100770.20
2022-11-26T11:26:44.984Z,100767.59
2022-11-26T11:27:48.208Z,100772.87
2022-11-26T11:28:53.185Z,100770.30
2022-11-26T11:30:00.244Z,100770.30
2022-11-26T11:31:15.109Z,100778.95
2022-11-26T11:32:37.176Z,100770.38
2022-11-26T11:33:41.583Z,100779.02
2022-11-26T11:34:43.468Z,100777.22
2022-11-26T11:36:01.275Z,100780.75
2022-11-26T11:37:10.545Z,100775.52
2022-11-26T11:39:31.254Z,100780.63
2022-11-26T11:40:37.007Z,100791.16
2022-11-26T11:41:48.551Z,100784.30
2022-11-26T11:42:54.853Z,100783.34
2022-11-26T11:44:18.886Z,100788.58
2022-11-26T11:46:38.526Z,100793.77
2022-11-26T11:47:42.849Z,100799.87
2022-11-26T11:48:54.953Z,100803.31
2022-11-26T11:50:06.581Z,100800.66
2022-11-26T11:51:33.289Z,100803.31
2022-11-26T11:52:50.788Z,100806.75
2022-11-26T11:54:13.311Z,100802.41
2022-11-26T11:55:19.098Z,100805.00
2022-11-26T11:56:39.974Z,100799.80
2022-11-26T11:57:57.783Z,100804.13
2022-11-26T11:59:12.822Z,100800.67
2022-11-26T12:00:20.824Z,100800.73
2022-11-26T12:01:29.990Z,100801.58
2022-11-26T12:02:38.741Z,100805.08
2022-11-26T12:03:44.485Z,100802.45
2022-11-26T12:05:19.478Z,100811.13
2022-11-26T12:06:26.060Z,100808.52
2022-11-26T12:07:40.515Z,100805.95
2022-11-26T12:08:52.516Z,100815.48
2022-11-26T12:10:16.578Z,100810.25
2022-11-26T12:11:35.210Z,100816.31
2022-11-26T12:13:57.729Z,100814.54
2022-11-26T12:16:17.990Z,100816.33
2022-11-26T12:17:33.190Z,100812.89
2022-11-26T12:18:49.367Z,100813.73
2022-11-26T12:20:10.402Z,100816.33
2022-11-26T12:21:14.694Z,100811.13
2022-11-26T12:22:23.182Z,100818.91
2022-11-26T12:23:59.205Z,100818.07
2022-11-26T12:25:07.624Z,100816.31
2022-11-26T12:26:28.857Z,100815.45
2022-11-26T12:27:34.572Z,100814.55
2022-11-26T12:28:54.847Z,100809.48
2022-11-26T12:30:00.553Z,100806.81
2022-11-26T12:31:12.206Z,100807.64
2022-11-26T12:32:20.640Z,100801.58
2022-11-26T12:33:41.448Z,100811.09
2022-11-26T12:34:47.246Z,100812.81
2022-11-26T12:35:52.854Z,100809.48
2022-11-26T12:36:58.613Z,100806.01
2022-11-26T12:38:10.127Z,100807.67
2022-11-26T12:39:13.710Z,100812.91
2022-11-26T12:40:19.950Z,100813.75
2022-11-26T12:41:31.143Z,100821.53
2022-11-26T12:44:00.180Z,100823.25
2022-11-26T12:45:24.518Z,100816.30
2022-11-26T12:46:36.291Z,100825.01
2022-11-26T12:47:44.949Z,100818.89
2022-11-26T12:49:10.203Z,100821.53
2022-11-26T12:50:29.191Z,100829.38
2022-11-26T12:51:34.903Z,100826.80
2022-11-26T12:52:52.706Z,100829.38
2022-11-26T12:54:21.807Z,100826.75
2022-11-26T12:55:36.745Z,100831.95
2022-11-26T12:56:54.641Z,100832.84
2022-11-26T12:59:41.474Z,100837.05
2022-11-26T13:00:44.074Z,100836.27
2022-11-26T13:01:46.560Z,100841.41
2022-11-26T13:02:50.363Z,100838.05
2022-11-26T13:04:08.376Z,100844.13
2022-11-26T13:04:58.574Z,100844.13
2022-11-26T13:06:13.012Z,100842.34
2022-11-26T13:07:22.825Z,100844.11
2022-11-26T13:08:52.815Z,100842.34
2022-11-26T13:10:22.424Z,100848.41
2022-11-26T13:11:37.424Z,100851.06
2022-11-26T13:12:43.101Z,100840.60
2022-11-26T13:14:05.854Z,100847.58
2022-11-26T13:15:20.348Z,100842.40
2022-11-26T13:16:38.263Z,100845.84
2022-11-26T13:17:46.710Z,100845.83
2022-11-26T13:19:03.963Z,100847.75
2022-11-26T13:20:35.736Z,100848.55
2022-11-26T13:22:05.866Z,100841.53
2022-11-26T13:23:44.083Z,100847.58
2022-11-26T13:25:08.084Z,100854.58
2022-11-26T13:26:30.502Z,100856.27
2022-11-26T13:27:48.505Z,100858.02
2022-11-26T13:29:19.568Z,100852.78
2022-11-26T13:30:51.482Z,100859.81
2022-11-26T13:32:07.147Z,100864.98
2022-11-26T13:33:23.006Z,100861.46
2022-11-26T13:34:28.698Z,100858.00
2022-11-26T13:35:49.268Z,100852.86
2022-11-26T13:37:07.103Z,100863.24
2022-11-26T13:38:34.039Z,100856.24
2022-11-26T13:40:13.803Z,100856.23
2022-11-26T13:41:36.677Z,100858.84
2022-11-26T13:42:54.130Z,100861.44
2022-11-26T13:44:16.954Z,100862.30
2022-11-26T13:45:25.749Z,100864.07
2022-11-26T13:46:31.616Z,100863.20
2022-11-26T13:47:37.081Z,100864.92
2022-11-26T13:48:51.251Z,100864.05
2022-11-26T13:50:05.487Z,100869.29
2022-11-26T13:51:20.176Z,100871.90
2022-11-26T13:52:38.206Z,100869.30
2022-11-26T13:53:43.856Z,100870.09
2022-11-26T13:54:56.005Z,100871.93
2022-11-26T13:56:01.379Z,100877.98
2022-11-26T13:57:21.715Z,100876.28
2022-11-26T13:58:34.102Z,100877.12
2022-11-26T13:59:38.336Z,100877.12
2022-11-26T14:00:40.337Z,100885.84
2022-11-26T14:01:42.371Z,100886.67
2022-11-26T14:02:44.788Z,100884.11
2022-11-26T14:03:48.784Z,100892.77
2022-11-26T14:04:52.475Z,100885.78
2022-11-26T14:06:06.530Z,100884.93
2022-11-26T14:07:08.723Z,100891.02
2022-11-26T14:08:45.347Z,100891.03
2022-11-26T14:11:04.378Z,100891.82
2022-11-26T14:12:06.341Z,100891.02
2022-11-26T14:13:10.878Z,100889.30
2022-11-26T14:14:28.903Z,100891.89
2022-11-26T14:15:43.835Z,100891.02
2022-11-26T14:17:08.047Z,100899.81
2022-11-26T14:18:12.891Z,100905.84
2022-11-26T14:19:15.029Z,100900.61
2022-11-26T14:20:17.100Z,100903.20
2022-11-26T14:21:20.862Z,100900.60
2022-11-26T14:22:29.519Z,100901.46
2022-11-26T14:23:47.009Z,100905.80
2022-11-26T14:24:52.755Z,100903.23
2022-11-26T14:25:55.559Z,100903.23
2022-11-26T14:26:57.599Z,100903.27
2022-11-26T14:27:59.577Z,100896.28
2022-11-26T14:29:10.994Z,100903.34
2022-11-26T14:30:19.582Z,100908.47
2022-11-26T14:31:28.114Z,100904.99
2022-11-26T14:32:49.077Z,100906.75
2022-11-26T14:33:54.399Z,100909.38
2022-11-26T14:34:57.235Z,100902.41
2022-11-26T14:35:59.109Z,100906.75
2022-11-26T14:37:01.590Z,100911.95
2022-11-26T14:38:06.266Z,100910.24
2022-11-26T14:39:14.295Z,100911.08
2022-11-26T14:40:29.248Z,100907.61
2022-11-26T14:41:36.930Z,100911.08
2022-11-26T14:42:38.820Z,100911.09
2022-11-26T14:43:40.685Z,100918.91
2022-11-26T14:44:43.544Z,100916.29
2022-11-26T14:46:08.820Z,100918.06
2022-11-26T14:47:17.754Z,100911.06
2022-11-26T14:48:25.543Z,100912.82
2022-11-26T14:49:36.766Z,100911.95
2022-11-26T14:50:39.812Z,100918.88
2022-11-26T14:51:45.258Z,100918.86
2022-11-26T14:52:50.904Z,100920.59
2022-11-26T14:53:54.627Z,100921.52
2022-11-26T14:54:59.992Z,100915.39
2022-11-26T20:08:29.945Z,101064.23
2022-11-26T20:09:32.062Z,101062.49
2022-11-26T20:10:34.019Z,101078.98
2022-11-26T20:11:38.888Z,101065.97
2022-11-26T20:12:40.810Z,101063.34
2022-11-26T20:13:44.652Z,101063.36
2022-11-26T20:14:46.829Z,101070.31
2022-11-26T20:15:48.698Z,101069.44
2022-11-26T20:16:50.933Z,101070.33
2022-11-26T20:17:52.964Z,101060.76
2022-11-26T20:18:55.876Z,101066.82
2022-11-26T20:19:57.781Z,101065.11
2022-11-26T20:21:03.168Z,101064.22
2022-11-26T20:22:05.239Z,101072.94
2022-11-26T20:23:07.798Z,101066.84
2022-11-26T20:24:13.530Z,101070.31
2022-11-26T20:25:15.642Z,101070.33
2022-11-26T20:26:21.514Z,101066.84
2022-11-26T20:27:23.591Z,101069.45
2022-11-26T20:28:26.142Z,101073.81
2022-11-26T20:29:28.063Z,101076.39
2022-11-26T20:30:31.467Z,101076.39
2022-11-26T20:31:34.834Z,101067.72
2022-11-26T20:32:37.600Z,101071.20
2022-11-26T20:33:39.706Z,101069.46
2022-11-26T20:34:41.607Z,101061.63
2022-11-26T20:35:44.744Z,101068.58
2022-11-26T20:36:47.442Z,101065.97
2022-11-26T20:37:49.425Z,101067.71
2022-11-26T20:40:03.807Z,101065.98
2022-11-26T20:42:19.522Z,101052.94
2022-11-26T20:43:21.375Z,101053.81
2022-11-26T20:44:23.440Z,101054.68
2022-11-26T20:45:25.403Z,101057.28
2022-11-26T20:46:28.974Z,101059.05
2022-11-26T20:47:31.099Z,101058.16
2022-11-26T20:48:34.626Z,101066.86
2022-11-26T20:49:41.446Z,101069.47
2022-11-26T20:50:40.389Z,101061.65
2022-11-26T20:51:42.289Z,101059.05
2022-11-26T20:52:45.366Z,101069.47
2022-11-26T20:53:49.085Z,101067.70
2022-11-26T20:54:53.823Z,101071.19
2022-11-26T20:55:56.109Z,101072.08
2022-11-26T20:57:01.161Z,101077.30
2022-11-26T20:58:03.075Z,101080.75
2022-11-26T20:59:05.028Z,101075.53
2022-11-26T21:00:08.781Z,101075.54
2022-11-26T21:02:33.804Z,101077.27
2022-11-26T21:03:35.725Z,101078.14
2022-11-26T21:04:37.873Z,101084.22
2022-11-26T21:05:39.712Z,101078.16
2022-11-26T21:06:42.967Z,101080.76
2022-11-26T21:07:44.933Z,101079.87
2022-11-26T21:08:47.500Z,101083.36
2022-11-26T21:09:49.371Z,101077.28
2022-11-26T21:10:52.260Z,101082.50
2022-11-26T21:11:54.156Z,101062.49
2022-11-26T21:12:56.016Z,101076.42
2022-11-26T21:13:59.100Z,101085.09
2022-11-26T21:15:00.974Z,101078.13
2022-11-26T21:16:06.504Z,101082.48
2022-11-26T21:17:10.901Z,101080.75
2022-11-26T21:18:13.999Z,101070.32
2022-11-26T21:19:15.872Z,101078.14
2022-11-26T21:20:18.064Z,101083.35
2022-11-26T21:21:21.236Z,101071.19
2022-11-26T21:22:23.240Z,101079.89
2022-11-26T21:23:26.628Z,101082.50
2022-11-26T21:24:28.513Z,101087.69
2022-11-26T21:25:30.605Z,101077.27
2022-11-26T21:26:34.048Z,101081.63
2022-11-26T21:27:35.989Z,101086.84
2022-11-26T21:28:39.357Z,101087.70
2022-11-26T21:29:41.662Z,101088.58
2022-11-26T21:30:44.323Z,101096.41
2022-11-26T21:31:46.478Z,101101.59
2022-11-26T21:32:48.360Z,101098.13
2022-11-26T21:33:59.994Z,101101.59
2022-11-26T21:35:01.889Z,101100.73
2022-11-26T21:36:06.888Z,101098.13
2022-11-26T21:37:08.781Z,101104.20
2022-11-26T21:38:10.630Z,101112.03
2022-11-26T21:39:14.985Z,101102.48
2022-11-26T21:40:17.236Z,101105.06
2022-11-26T21:41:20.815Z,101112.88
2022-11-26T21:42:22.682Z,101111.17
2022-11-26T21:43:25.236Z,101112.88
2022-11-26T21:44:27.112Z,101105.06
2022-11-26T21:45:28.976Z,101109.42
2022-11-26T21:46:38.313Z,101113.77
2022-11-26T21:47:38.047Z,101105.95
2022-11-26T21:48:39.894Z,101102.48
2022-11-26T21:49:41.880Z,101102.48
2022-11-26T21:50:44.014Z,101101.59
2022-11-26T21:51:45.883Z,101106.81
2022-11-26T21:52:47.734Z,101108.56
2022-11-26T21:53:50.076Z,101101.61
2022-11-26T21:54:52.128Z,101092.91
2022-11-26T21:55:54.600Z,101092.91
2022-11-26T21:56:57.296Z,101094.66
2022-11-26T21:57:59.153Z,101098.13
2022-11-26T21:59:01.244Z,101093.77
2022-11-26T22:00:04.499Z,101098.13
2022-11-26T22:01:15.076Z,101095.52
2022-11-26T22:02:18.295Z,101092.91
2022-11-26T22:03:20.224Z,101097.23
2022-11-26T22:04:22.106Z,101098.98
2022-11-26T22:05:24.264Z,101098.98
